Time;durP1;ratioP1;P1;durP2;ratioP2;P2;SDS_P1;SDS_P2;PMS_P1;PMS_P2;Temp;Humidity;BMP_temperature;BMP_pressure;BME280_temperature;BME280_humidity;BME280_pressure;Samples;Min_cycle;Max_cycle;Signal;HPM_P1;HPM_P2
2023/05/27 00:02:18;;;;;;;7.28;4.35;;;;;;;24.40;51.57;99558.09;5001375;28;20035;-71
2023/05/27 00:04:44;;;;;;;9.93;4.10;;;;;;;24.40;51.38;99552.75;5072513;28;20021;-72
2023/05/27 00:07:09;;;;;;;8.73;4.38;;;;;;;24.40;51.47;99558.09;5071200;28;20032;-72
2023/05/27 00:09:35;;;;;;;7.47;4.32;;;;;;;24.38;51.55;99562.69;5064416;28;20086;-72
2023/05/27 00:12:01;;;;;;;7.40;4.60;;;;;;;24.38;51.62;99553.84;5072303;28;20113;-71
2023/05/27 00:14:26;;;;;;;7.15;4.15;;;;;;;24.36;51.40;99553.94;4977988;28;20108;-71
2023/05/27 00:16:51;;;;;;;5.93;3.70;;;;;;;24.35;51.51;99554.91;4970922;28;20106;-71
2023/05/27 00:19:17;;;;;;;7.95;4.50;;;;;;;24.32;51.53;99555.16;4970674;28;20393;-72
2023/05/27 00:21:43;;;;;;;7.80;4.43;;;;;;;24.32;51.77;99547.16;4970424;28;20034;-72
2023/05/27 00:24:10;;;;;;;7.22;4.32;;;;;;;24.33;51.90;99561.31;4970934;28;20026;-72
2023/05/27 00:26:35;;;;;;;9.52;4.25;;;;;;;24.32;51.49;99549.81;4970829;28;20026;-71
2023/05/27 00:29:01;;;;;;;8.00;4.13;;;;;;;24.31;51.83;99550.75;4953663;28;20033;-72
2023/05/27 00:31:26;;;;;;;9.10;4.72;;;;;;;24.31;51.83;99548.09;4970729;28;20023;-71
2023/05/27 00:33:52;;;;;;;6.32;3.80;;;;;;;24.29;51.57;99551.84;5035026;28;20028;-70
2023/05/27 00:36:17;;;;;;;8.05;4.10;;;;;;;24.31;51.70;99555.25;5071625;28;20024;-72
2023/05/27 00:38:43;;;;;;;7.80;4.63;;;;;;;24.30;51.82;99546.41;5072100;28;20024;-71
2023/05/27 00:41:11;;;;;;;5.85;3.83;;;;;;;24.29;51.57;99544.69;5071861;28;20107;-72
2023/05/27 00:43:37;;;;;;;7.43;4.10;;;;;;;24.29;51.77;99541.16;5072164;28;20078;-72
2023/05/27 00:46:02;;;;;;;6.63;3.95;;;;;;;24.25;51.72;99537.88;4970965;28;20488;-72
2023/05/27 00:48:29;;;;;;;5.70;3.58;;;;;;;24.24;51.78;99536.19;4952928;28;20458;-72
2023/05/27 00:50:55;;;;;;;7.63;3.85;;;;;;;24.20;51.73;99545.38;4970507;28;20063;-72
2023/05/27 00:53:21;;;;;;;6.50;3.80;;;;;;;24.16;51.77;99543.91;4950335;29;20066;-72
2023/05/27 00:55:47;;;;;;;8.15;4.30;;;;;;;24.16;51.78;99541.25;4960364;28;20477;-71
2023/05/27 00:58:13;;;;;;;6.55;4.10;;;;;;;24.15;51.76;99539.53;4970193;28;20037;-71
2023/05/27 01:00:38;;;;;;;6.20;4.05;;;;;;;24.13;52.00;99539.66;4970260;28;20022;-72
2023/05/27 01:03:06;;;;;;;5.88;4.00;;;;;;;24.10;52.01;99534.53;4970080;28;20472;-72
2023/05/27 01:05:32;;;;;;;9.65;4.13;;;;;;;24.10;52.12;99530.06;5029701;28;20036;-72
2023/05/27 01:08:04;;;;;;;7.53;3.92;;;;;;;24.09;52.28;99528.38;5071788;28;20478;-72
2023/05/27 01:10:36;;;;;;;7.03;3.75;;;;;;;24.05;52.29;99532.19;5071830;28;20500;-71
2023/05/27 01:13:40;;;;;;;7.55;4.22;;;;;;;24.03;52.11;99533.25;5071686;28;20036;-72
2023/05/27 01:16:10;;;;;;;6.28;3.97;;;;;;;24.02;52.24;99536.88;5071908;28;20052;-71
2023/05/27 01:18:37;;;;;;;8.13;4.65;;;;;;;24.02;52.03;99532.38;4998893;28;20041;-72
2023/05/27 01:21:05;;;;;;;7.03;4.05;;;;;;;24.02;51.98;99537.72;4969615;28;20065;-71
2023/05/27 01:23:31;;;;;;;6.50;3.75;;;;;;;24.02;51.87;99532.38;4969954;28;20126;-71
2023/05/27 01:25:57;;;;;;;6.90;4.32;;;;;;;24.02;52.23;99531.56;5027479;28;20024;-72
2023/05/27 01:28:22;;;;;;;6.57;3.65;;;;;;;23.98;52.08;99530.94;4973758;28;20050;-71
2023/05/27 01:30:51;;;;;;;6.72;3.92;;;;;;;23.92;52.10;99528.72;4973746;28;20408;-72
2023/05/27 01:33:20;;;;;;;6.95;3.88;;;;;;;23.91;52.49;99525.19;4956142;28;20042;-72
2023/05/27 01:35:53;;;;;;;6.38;4.70;;;;;;;23.92;52.43;99526.06;4973361;28;20049;-72
2023/05/27 01:38:21;;;;;;;7.45;4.65;;;;;;;23.87;52.59;99521.91;4973502;28;20034;-72
2023/05/27 01:40:48;;;;;;;7.78;4.03;;;;;;;23.86;52.36;99522.84;4973611;28;20022;-72
2023/05/27 01:43:15;;;;;;;7.25;3.97;;;;;;;23.83;52.50;99523.06;4973416;28;20037;-72
2023/05/27 01:45:42;;;;;;;6.82;4.00;;;;;;;23.82;52.49;99525.88;5040048;28;20110;-72
2023/05/27 01:48:09;;;;;;;6.30;4.10;;;;;;;23.83;52.21;99528.41;4973609;28;20023;-72
2023/05/27 01:50:35;;;;;;;6.28;4.20;;;;;;;23.82;52.22;99526.69;4972875;28;20035;-72
2023/05/27 01:53:01;;;;;;;8.55;4.13;;;;;;;23.82;52.37;99515.22;4973255;28;20029;-71
2023/05/27 01:55:27;;;;;;;7.97;4.63;;;;;;;23.81;52.48;99514.34;4972909;28;20015;-72
2023/05/27 01:57:53;;;;;;;7.30;4.10;;;;;;;23.80;52.31;99517.97;4973112;28;20027;-71
2023/05/27 02:00:18;;;;;;;5.70;3.80;;;;;;;23.77;52.49;99520.84;4972922;28;20482;-72
2023/05/27 02:02:44;;;;;;;6.20;3.85;;;;;;;23.76;52.62;99515.66;4976384;28;20543;-71
2023/05/27 02:05:10;;;;;;;6.97;4.55;;;;;;;23.74;52.49;99523.75;4972886;28;20081;-71
2023/05/27 02:07:36;;;;;;;8.80;4.38;;;;;;;23.73;52.76;99524.72;4973121;28;20404;-71
2023/05/27 02:10:02;;;;;;;5.82;4.18;;;;;;;23.71;52.87;99511.50;4973106;28;20027;-72
2023/05/27 02:12:27;;;;;;;8.32;4.55;;;;;;;23.70;52.71;99511.59;4973107;28;20488;-71
2023/05/27 02:14:52;;;;;;;6.35;3.90;;;;;;;23.68;52.86;99518.88;4973023;28;20455;-71
2023/05/27 02:17:18;;;;;;;6.15;3.97;;;;;;;23.68;52.98;99514.38;4972661;28;20035;-71
2023/05/27 02:19:43;;;;;;;6.90;3.95;;;;;;;23.67;52.79;99511.84;4972886;28;20472;-72
2023/05/27 02:22:09;;;;;;;7.00;4.15;;;;;;;23.66;52.87;99510.13;4955271;28;20031;-71
2023/05/27 02:24:34;;;;;;;7.38;4.07;;;;;;;23.66;52.86;99502.13;4972621;28;20111;-72
2023/05/27 02:27:01;;;;;;;7.78;4.10;;;;;;;23.63;53.01;99511.19;4972728;28;20488;-71
2023/05/27 02:29:26;;;;;;;6.00;3.95;;;;;;;23.63;52.87;99503.19;4972609;28;20034;-71
2023/05/27 02:31:52;;;;;;;6.13;3.85;;;;;;;23.62;53.09;99504.16;4972336;28;20035;-71
2023/05/27 02:34:17;;;;;;;6.72;4.20;;;;;;;23.60;53.24;99493.59;4972761;28;20076;-72
2023/05/27 02:36:43;;;;;;;10.35;4.53;;;;;;;23.61;53.16;99494.47;4982355;28;20023;-71
2023/05/27 02:39:10;;;;;;;6.82;4.47;;;;;;;23.59;53.18;99489.25;5074395;28;20024;-72
2023/05/27 02:41:35;;;;;;;6.65;4.22;;;;;;;23.59;53.16;99489.25;5074249;28;20174;-71
2023/05/27 02:44:01;;;;;;;5.95;4.07;;;;;;;23.57;53.34;99488.50;5074454;28;20482;-71
2023/05/27 02:46:26;;;;;;;6.65;3.80;;;;;;;23.56;53.14;99492.16;5074075;28;20028;-72
2023/05/27 02:48:51;;;;;;;5.90;4.05;;;;;;;23.56;53.42;99493.94;5074256;28;20520;-71
2023/05/27 02:51:17;;;;;;;5.18;3.45;;;;;;;23.54;53.37;99491.38;4999946;28;20043;-70
2023/05/27 02:53:42;;;;;;;6.57;4.00;;;;;;;23.56;53.29;99491.28;4972587;28;20383;-72
2023/05/27 02:56:07;;;;;;;6.07;4.15;;;;;;;23.54;53.17;99491.38;4972093;28;20027;-70
2023/05/27 02:58:33;;;;;;;6.40;3.70;;;;;;;23.53;53.31;99483.53;4972325;28;20031;-71
2023/05/27 03:00:58;;;;;;;10.70;4.40;;;;;;;23.52;53.29;99471.16;5026159;28;20027;-72
2023/05/27 03:03:25;;;;;;;7.32;4.05;;;;;;;23.52;53.28;99476.47;5073850;28;20033;-72
2023/05/27 03:05:50;;;;;;;6.22;4.00;;;;;;;23.51;53.34;99478.31;5074170;28;20028;-72
2023/05/27 03:08:15;;;;;;;5.07;3.42;;;;;;;23.50;53.46;99473.06;5074031;28;20359;-71
2023/05/27 03:10:41;;;;;;;6.72;4.40;;;;;;;23.48;53.32;99465.19;5032539;28;20022;-71
2023/05/27 03:13:06;;;;;;;6.55;3.60;;;;;;;23.48;53.48;99465.19;4972001;28;20054;-72
2023/05/27 03:15:32;;;;;;;6.32;3.88;;;;;;;23.47;53.37;99471.47;4971749;28;20019;-71
2023/05/27 03:17:57;;;;;;;6.22;4.15;;;;;;;23.46;53.57;99461.78;4971981;28;20492;-71
2023/05/27 03:20:24;;;;;;;6.43;4.38;;;;;;;23.46;53.44;99457.34;4976397;28;20027;-72
2023/05/27 03:22:49;;;;;;;5.63;3.90;;;;;;;23.44;53.64;99463.72;5047633;28;20053;-72
2023/05/27 03:25:15;;;;;;;5.85;3.55;;;;;;;23.45;53.67;99460.09;4971873;28;20481;-71
2023/05/27 03:27:41;;;;;;;7.20;4.20;;;;;;;23.41;53.41;99464.81;4971920;28;20030;-73
2023/05/27 03:30:07;;;;;;;7.88;4.05;;;;;;;23.39;53.43;99460.53;4971484;28;20085;-71
2023/05/27 03:32:33;;;;;;;6.40;3.75;;;;;;;23.38;53.61;99453.53;4971945;28;20038;-72
2023/05/27 03:34:59;;;;;;;7.38;4.25;;;;;;;23.35;53.76;99451.94;5028631;28;20035;-72
2023/05/27 03:37:24;;;;;;;7.35;3.83;;;;;;;23.33;53.57;99452.03;5073094;28;20025;-71
2023/05/27 03:39:50;;;;;;;6.75;4.40;;;;;;;23.33;53.76;99445.84;5073200;28;20025;-71
2023/05/27 03:42:15;;;;;;;7.25;4.25;;;;;;;23.32;54.01;99445.00;5072915;28;20472;-72
2023/05/27 03:44:40;;;;;;;5.97;3.78;;;;;;;23.30;53.89;99456.69;5072664;28;20032;-72
2023/05/27 03:47:06;;;;;;;4.82;3.35;;;;;;;23.29;54.06;99450.50;5018447;28;20050;-70
2023/05/27 03:49:31;;;;;;;5.30;3.47;;;;;;;23.27;53.97;99455.09;4971362;28;20034;-72
2023/05/27 03:51:57;;;;;;;5.50;3.83;;;;;;;23.27;53.93;99452.44;4971356;28;20057;-72
2023/05/27 03:54:22;;;;;;;5.03;3.30;;;;;;;23.26;54.02;99448.06;4971276;28;20677;-72
2023/05/27 03:56:48;;;;;;;6.80;3.60;;;;;;;23.24;54.23;99452.63;4971244;28;20019;-71
2023/05/27 03:59:14;;;;;;;5.47;3.67;;;;;;;23.24;53.89;99447.31;4971160;28;20583;-72
2023/05/27 04:01:40;;;;;;;6.05;3.53;;;;;;;23.22;53.90;99449.25;4971371;28;20031;-72
2023/05/27 04:04:06;;;;;;;6.35;3.67;;;;;;;23.20;54.15;99452.00;4971379;28;20105;-70
2023/05/27 04:06:33;;;;;;;6.20;3.38;;;;;;;23.19;54.18;99454.78;4971124;28;20122;-72
2023/05/27 04:08:58;;;;;;;6.22;3.60;;;;;;;23.19;54.07;99455.63;4971231;28;20023;-71
2023/05/27 04:11:27;;;;;;;6.47;3.47;;;;;;;23.19;54.12;99462.75;4971277;28;20435;-72
2023/05/27 04:13:53;;;;;;;6.85;3.60;;;;;;;23.18;54.07;99455.72;4970755;28;20035;-72
2023/05/27 04:16:18;;;;;;;6.80;3.78;;;;;;;23.16;54.50;99455.00;4971063;28;20562;-71
2023/05/27 04:18:48;;;;;;;5.65;3.90;;;;;;;23.17;54.06;99451.38;5047564;28;20390;-71
2023/05/27 04:21:20;;;;;;;5.68;3.63;;;;;;;23.15;54.18;99456.81;5072495;28;20028;-72
2023/05/27 04:23:45;;;;;;;5.93;3.63;;;;;;;23.14;54.33;99451.59;5072363;28;20081;-71
2023/05/27 04:26:11;;;;;;;6.60;3.50;;;;;;;23.15;54.29;99456.81;5072351;28;20476;-72
2023/05/27 04:28:39;;;;;;;5.72;3.63;;;;;;;23.15;54.21;99455.97;5072065;28;20111;-71
2023/05/27 04:31:05;;;;;;;5.80;3.30;;;;;;;23.13;54.25;99455.19;5072489;28;20086;-72
2023/05/27 04:33:30;;;;;;;6.20;3.33;;;;;;;23.10;54.54;99455.44;5071012;28;20375;-71
2023/05/27 04:35:56;;;;;;;5.25;3.67;;;;;;;23.09;54.40;99459.06;5065902;28;20058;-72
2023/05/27 04:38:22;;;;;;;5.55;3.72;;;;;;;23.09;54.58;99459.06;4984816;28;20084;-71
2023/05/27 04:40:52;;;;;;;5.65;3.60;;;;;;;23.07;54.48;99467.97;4970752;28;20528;-72
2023/05/27 04:43:21;;;;;;;5.88;3.58;;;;;;;23.06;54.56;99460.97;4970346;28;20126;-72
2023/05/27 04:45:47;;;;;;;6.10;3.42;;;;;;;23.06;54.57;99466.28;5053842;28;20124;-72
2023/05/27 04:48:14;;;;;;;6.28;3.80;;;;;;;23.07;54.61;99467.97;4983894;28;20029;-72
2023/05/27 04:50:40;;;;;;;5.60;3.63;;;;;;;23.09;54.62;99469.72;5072015;28;20056;-72
2023/05/27 04:53:06;;;;;;;6.00;3.83;;;;;;;23.10;54.81;99466.09;5002716;28;20032;-72
2023/05/27 04:55:32;;;;;;;4.85;3.60;;;;;;;23.10;54.70;99468.75;4964690;28;20091;-72
2023/05/27 04:57:58;;;;;;;5.00;3.38;;;;;;;23.07;54.80;99475.13;4969829;28;20026;-73
2023/05/27 05:00:38;;;;;;;5.13;3.38;;;;;;;23.07;54.77;99475.13;5064893;28;20017;-72
2023/05/27 05:03:03;;;;;;;5.32;3.50;;;;;;;23.09;54.91;99469.72;5071916;28;20032;-71
2023/05/27 05:05:29;;;;;;;4.88;3.53;;;;;;;23.07;54.60;99465.31;5071956;28;20085;-71
2023/05/27 05:07:55;;;;;;;5.60;3.40;;;;;;;23.05;54.88;99474.41;5071923;28;20031;-72
2023/05/27 05:10:20;;;;;;;5.43;3.70;;;;;;;23.06;54.81;99476.09;4998154;28;20023;-71
2023/05/27 05:12:46;;;;;;;5.65;3.72;;;;;;;23.08;54.67;99479.50;4969865;28;20023;-71
2023/05/27 05:15:12;;;;;;;5.15;3.70;;;;;;;23.07;54.68;99473.31;4970074;28;20027;-72
2023/05/27 05:17:37;;;;;;;5.78;3.60;;;;;;;23.04;54.78;99478.84;4970215;28;20038;-72
2023/05/27 05:20:03;;;;;;;7.00;3.65;;;;;;;23.04;54.92;99489.50;4970247;28;20034;-72
2023/05/27 05:22:29;;;;;;;4.78;3.70;;;;;;;23.03;54.74;99477.16;4970098;28;20030;-72
2023/05/27 05:24:54;;;;;;;5.53;3.53;;;;;;;23.00;54.76;99488.00;4970068;28;20481;-72
2023/05/27 05:27:20;;;;;;;5.57;3.60;;;;;;;23.01;54.67;99487.03;5070632;28;20118;-71
2023/05/27 05:29:45;;;;;;;5.53;3.13;;;;;;;22.99;54.80;99490.78;5071902;28;20051;-71
2023/05/27 05:32:12;;;;;;;6.63;3.97;;;;;;;23.00;54.72;99493.31;5071726;28;20021;-71
2023/05/27 05:34:39;;;;;;;6.07;3.53;;;;;;;23.02;54.74;99487.91;5071548;28;20024;-71
2023/05/27 05:37:05;;;;;;;5.10;3.75;;;;;;;23.01;54.83;99489.69;5071575;28;20100;-71
2023/05/27 05:39:31;;;;;;;6.68;3.67;;;;;;;23.02;54.57;99493.22;5071662;28;20109;-71
2023/05/27 05:41:57;;;;;;;5.55;3.50;;;;;;;22.99;54.69;99490.78;5071286;28;20098;-71
2023/05/27 05:44:23;;;;;;;5.45;3.30;;;;;;;23.02;54.59;99493.22;5071525;28;20021;-72
2023/05/27 05:46:49;;;;;;;6.75;3.97;;;;;;;23.02;54.59;99490.56;5028176;28;20026;-71
2023/05/27 05:49:14;;;;;;;5.47;2.83;;;;;;;23.02;54.54;99496.75;4970074;28;20374;-71
2023/05/27 05:51:40;;;;;;;5.82;3.75;;;;;;;23.02;54.57;99490.56;4969467;28;20043;-71
2023/05/27 05:54:05;;;;;;;6.45;3.85;;;;;;;23.05;54.51;99491.19;4969716;28;20412;-70
2023/05/27 05:56:32;;;;;;;4.80;3.47;;;;;;;23.05;54.69;99493.03;4948634;29;20034;-71
2023/05/27 05:58:57;;;;;;;5.30;3.50;;;;;;;23.05;54.56;99496.53;4989012;28;20021;-71
2023/05/27 06:01:22;;;;;;;6.45;3.58;;;;;;;23.06;54.49;99492.91;5016860;28;20030;-71
2023/05/27 06:03:48;;;;;;;5.60;3.75;;;;;;;23.05;54.50;99496.53;4969486;28;20484;-71
2023/05/27 06:06:14;;;;;;;8.32;3.75;;;;;;;23.09;54.52;99501.63;4969609;28;20047;-71
2023/05/27 06:08:40;;;;;;;7.18;4.05;;;;;;;23.11;54.46;99495.25;4989216;28;20086;-71
2023/05/27 06:11:06;;;;;;;5.63;3.90;;;;;;;23.11;54.32;99500.59;5055011;28;20029;-70
2023/05/27 06:13:31;;;;;;;7.28;4.20;;;;;;;23.13;54.20;99493.31;5074999;28;20024;-70
2023/05/27 06:15:57;;;;;;;5.70;3.90;;;;;;;23.16;54.20;99498.41;5074701;28;20025;-72
2023/05/27 06:18:22;;;;;;;6.47;3.85;;;;;;;23.18;54.28;99495.66;5016827;28;20106;-72
2023/05/27 06:20:48;;;;;;;5.03;3.78;;;;;;;23.18;54.37;99485.00;5074758;28;20032;-72
2023/05/27 06:23:13;;;;;;;5.65;4.10;;;;;;;23.17;54.20;99489.50;5074389;28;20514;-72
2023/05/27 06:25:39;;;;;;;5.53;4.03;;;;;;;23.18;54.30;99490.34;5074194;28;20032;-72
2023/05/27 06:28:04;;;;;;;6.30;3.67;;;;;;;23.22;54.20;99483.84;5074809;28;20102;-70
2023/05/27 06:30:31;;;;;;;5.22;3.65;;;;;;;23.26;54.11;99481.81;4981171;28;20548;-72
2023/05/27 06:32:56;;;;;;;5.68;3.90;;;;;;;23.28;53.97;99480.75;4972437;28;20023;-71
2023/05/27 06:35:22;;;;;;;6.75;4.53;;;;;;;23.28;54.03;99474.56;4972272;28;20083;-71
2023/05/27 06:37:47;;;;;;;6.50;4.63;;;;;;;23.30;53.88;99481.47;4972525;28;20102;-71
2023/05/27 06:40:13;;;;;;;5.97;4.05;;;;;;;23.32;53.99;99482.28;4972174;28;20027;-71
2023/05/27 06:42:38;;;;;;;7.60;4.45;;;;;;;23.36;54.03;99471.41;4972177;28;20035;-72
2023/05/27 06:45:05;;;;;;;8.02;4.13;;;;;;;23.39;53.56;99477.34;4972450;28;20103;-71
2023/05/27 06:47:30;;;;;;;6.93;4.93;;;;;;;23.42;53.76;99476.28;4955172;28;20027;-72
2023/05/27 06:49:55;;;;;;;9.13;4.18;;;;;;;23.45;53.56;99473.41;4972211;28;20030;-72
2023/05/27 06:52:21;;;;;;;7.13;5.13;;;;;;;23.46;53.75;99472.44;4971781;28;20424;-72
2023/05/27 06:54:47;;;;;;;7.55;5.40;;;;;;;23.49;53.58;99474.91;5002353;28;20043;-71
2023/05/27 06:57:12;;;;;;;6.60;4.60;;;;;;;23.49;53.44;99472.25;4979050;28;20054;-71
2023/05/27 06:59:38;;;;;;;6.80;5.03;;;;;;;23.48;53.66;99475.84;4974314;28;20075;-71
2023/05/27 07:02:03;;;;;;;6.97;5.13;;;;;;;23.50;53.59;99471.28;4979424;28;20054;-72
2023/05/27 07:04:29;;;;;;;7.03;5.30;;;;;;;23.52;53.75;99474.66;4971762;28;20027;-72
2023/05/27 07:06:54;;;;;;;7.03;5.47;;;;;;;23.51;53.73;99470.31;4971976;28;20023;-72
2023/05/27 07:09:19;;;;;;;8.40;5.45;;;;;;;23.54;53.56;99475.41;4973162;28;20023;-71
2023/05/27 07:11:45;;;;;;;7.80;5.57;;;;;;;23.55;53.66;99471.81;4991321;28;20164;-72
2023/05/27 07:14:10;;;;;;;7.68;5.25;;;;;;;23.56;53.56;99470.84;4990700;28;20054;-72
2023/05/27 07:16:36;;;;;;;7.57;5.53;;;;;;;23.58;53.55;99470.72;4971515;28;20027;-71
2023/05/27 07:19:02;;;;;;;7.15;5.38;;;;;;;23.59;53.49;99481.25;4954467;28;20027;-70
2023/05/27 07:21:27;;;;;;;7.38;5.72;;;;;;;23.58;53.75;99476.06;4971122;28;20023;-69
2023/05/27 07:23:53;;;;;;;7.38;5.93;;;;;;;23.64;53.79;99469.44;4971218;28;20030;-70
2023/05/27 07:26:18;;;;;;;7.35;5.57;;;;;;;23.63;53.48;99462.41;4972423;28;20031;-71
2023/05/27 07:28:44;;;;;;;7.28;5.35;;;;;;;23.64;53.47;99464.09;5073147;28;20058;-72
2023/05/27 07:31:10;;;;;;;6.40;5.35;;;;;;;23.66;53.62;99462.16;5073475;28;20024;-71
2023/05/27 07:33:35;;;;;;;7.38;5.40;;;;;;;23.67;53.77;99459.41;5073606;28;20720;-72
2023/05/27 07:36:01;;;;;;;7.50;5.72;;;;;;;23.69;53.79;99460.13;5073134;28;20396;-71
2023/05/27 07:38:26;;;;;;;7.13;4.97;;;;;;;23.68;53.80;99461.09;5073170;28;20031;-72
2023/05/27 07:40:52;;;;;;;7.28;5.75;;;;;;;23.70;53.67;99463.66;5073338;28;20469;-71
2023/05/27 07:43:17;;;;;;;7.15;5.25;;;;;;;23.73;53.67;99466.09;5037479;28;20085;-72
2023/05/27 07:45:42;;;;;;;7.32;5.00;;;;;;;23.70;53.94;99463.66;5040692;28;20025;-72
2023/05/27 07:48:08;;;;;;;7.22;5.65;;;;;;;23.78;53.93;99471.94;4990388;28;20060;-71
2023/05/27 07:50:33;;;;;;;6.95;5.28;;;;;;;23.78;53.95;99455.94;4974508;28;20553;-71
2023/05/27 07:52:59;;;;;;;7.90;5.50;;;;;;;23.81;54.00;99461.06;4959580;28;20034;-71
2023/05/27 07:55:24;;;;;;;6.47;5.60;;;;;;;23.82;53.92;99462.75;4970601;28;20027;-73
2023/05/27 07:57:50;;;;;;;6.85;4.88;;;;;;;23.84;53.90;99476.84;4968964;28;20477;-73
2023/05/27 08:00:15;;;;;;;7.90;5.15;;;;;;;23.85;53.83;99462.53;5054370;28;20024;-72
2023/05/27 08:02:43;;;;;;;7.55;5.57;;;;;;;23.89;53.80;99468.50;4992916;28;20022;-72
2023/05/27 08:05:09;;;;;;;7.85;5.00;;;;;;;23.91;53.89;99463.06;4975558;28;20027;-72
2023/05/27 08:07:34;;;;;;;7.47;5.40;;;;;;;23.92;53.58;99468.25;4970823;28;20022;-71
2023/05/27 08:09:59;;;;;;;8.02;5.35;;;;;;;23.95;53.72;99457.38;4989645;28;20398;-72
2023/05/27 08:12:25;;;;;;;7.20;4.78;;;;;;;23.98;53.76;99453.63;4970010;28;20031;-71
2023/05/27 08:14:52;;;;;;;7.93;5.05;;;;;;;24.00;53.44;99462.38;4971019;28;20487;-72
2023/05/27 08:17:18;;;;;;;6.75;5.25;;;;;;;24.02;53.58;99462.25;5022929;28;20040;-72
2023/05/27 08:19:43;;;;;;;7.78;4.72;;;;;;;24.00;53.83;99457.03;5064807;28;20021;-72
2023/05/27 08:22:08;;;;;;;8.38;4.70;;;;;;;24.02;53.50;99465.75;4966931;28;20495;-73
2023/05/27 08:24:34;;;;;;;8.88;4.78;;;;;;;24.04;53.89;99458.50;4970553;28;20053;-72
2023/05/27 08:27:00;;;;;;;6.50;4.95;;;;;;;24.06;53.44;99461.91;4970494;28;20033;-71
2023/05/27 08:29:27;;;;;;;8.18;4.57;;;;;;;24.07;53.23;99458.31;4969984;28;20030;-71
2023/05/27 08:31:53;;;;;;;8.38;5.20;;;;;;;24.08;53.49;99457.38;5005429;28;20511;-72
2023/05/27 08:34:18;;;;;;;7.35;4.88;;;;;;;24.08;53.35;99460.03;4969940;28;20064;-72
2023/05/27 08:36:44;;;;;;;7.20;5.30;;;;;;;24.09;53.36;99461.72;4970314;28;20084;-72
2023/05/27 08:39:09;;;;;;;8.23;5.32;;;;;;;24.13;53.51;99459.69;4985813;28;20027;-73
2023/05/27 08:41:37;;;;;;;9.95;5.38;;;;;;;24.12;52.99;99452.66;5056400;28;20074;-73
2023/05/27 08:44:03;;;;;;;7.97;5.40;;;;;;;24.14;52.85;99456.03;5071875;28;20089;-73
2023/05/27 08:46:29;;;;;;;8.35;5.20;;;;;;;24.15;53.30;99456.91;5071538;28;20029;-72
2023/05/27 08:48:57;;;;;;;11.65;4.97;;;;;;;24.17;53.04;99449.63;4974948;28;20500;-72
2023/05/27 08:51:23;;;;;;;9.40;5.38;;;;;;;24.17;52.96;99455.84;5047062;28;20044;-72
2023/05/27 08:53:49;;;;;;;8.80;5.30;;;;;;;24.18;52.65;99444.19;5070807;28;20032;-73
2023/05/27 08:56:18;;;;;;;8.50;5.18;;;;;;;24.20;52.92;99446.72;5002749;28;20035;-73
2023/05/27 08:58:44;;;;;;;6.57;4.93;;;;;;;24.21;53.01;99443.13;4952960;28;20499;-72
2023/05/27 09:01:09;;;;;;;8.32;4.50;;;;;;;24.22;52.88;99442.97;5002480;28;20027;-72
2023/05/27 09:03:35;;;;;;;8.73;4.88;;;;;;;24.24;53.06;99453.53;4969263;28;20031;-72
2023/05/27 09:06:03;;;;;;;7.95;5.15;;;;;;;24.23;52.95;99449.16;4969921;28;20041;-72
2023/05/27 09:08:29;;;;;;;9.60;5.00;;;;;;;24.26;52.97;99448.97;4970117;28;20491;-72
2023/05/27 09:10:55;;;;;;;8.90;4.88;;;;;;;24.26;53.06;99435.63;5025919;28;20051;-72
2023/05/27 09:13:30;;;;;;;8.40;4.95;;;;;;;24.27;52.96;99445.31;5071591;28;20413;-72
2023/05/27 09:16:05;;;;;;;7.95;5.13;;;;;;;24.29;53.13;99439.84;5070272;28;20024;-73
2023/05/27 09:18:32;;;;;;;9.82;5.70;;;;;;;24.31;52.77;99430.75;4979118;28;20496;-72
2023/05/27 09:20:58;;;;;;;9.23;4.57;;;;;;;24.32;53.13;99427.16;5027421;28;20050;-72
2023/05/27 09:23:23;;;;;;;8.70;4.57;;;;;;;24.33;52.80;99428.84;5071278;28;20032;-73
2023/05/27 09:25:52;;;;;;;10.40;5.35;;;;;;;24.35;52.99;99424.25;5051651;28;20421;-73
2023/05/27 09:28:25;;;;;;;9.68;5.45;;;;;;;24.35;52.79;99426.91;4969746;28;20022;-73
2023/05/27 09:31:04;;;;;;;9.00;4.80;;;;;;;24.37;52.83;99424.97;5020814;28;20012;-73
2023/05/27 09:33:35;;;;;;;9.65;5.20;;;;;;;24.39;53.03;99428.38;5007045;28;20106;-73
2023/05/27 09:36:05;;;;;;;7.70;4.50;;;;;;;24.39;52.73;99428.38;4984761;28;20083;-73
2023/05/27 09:38:31;;;;;;;6.97;4.40;;;;;;;24.43;52.74;99425.47;4976016;28;20023;-73
2023/05/27 09:40:58;;;;;;;7.28;5.18;;;;;;;24.43;52.68;99428.13;4971013;28;20065;-72
2023/05/27 09:43:25;;;;;;;8.43;4.45;;;;;;;24.44;52.73;99429.88;5038983;28;20106;-72
2023/05/27 09:45:52;;;;;;;7.63;4.55;;;;;;;24.44;53.00;99425.34;4977468;28;20023;-72
2023/05/27 09:48:19;;;;;;;8.30;5.10;;;;;;;24.45;52.53;99426.22;4965023;28;20062;-73
2023/05/27 09:50:46;;;;;;;10.35;4.53;;;;;;;24.47;52.86;99417.13;4996218;28;20151;-72
2023/05/27 09:53:13;;;;;;;7.32;4.47;;;;;;;24.48;52.87;99417.97;5074818;28;20021;-73
2023/05/27 09:55:42;;;;;;;9.45;4.78;;;;;;;24.49;52.63;99417.84;5006993;28;20026;-73
2023/05/27 09:58:07;;;;;;;8.45;4.55;;;;;;;24.51;52.55;99413.25;4971878;28;20056;-72
2023/05/27 10:00:33;;;;;;;7.90;4.63;;;;;;;24.52;52.58;99414.09;4974142;28;20094;-73
2023/05/27 10:03:01;;;;;;;8.30;4.60;;;;;;;24.55;52.49;99411.19;4979130;28;20063;-74
2023/05/27 10:05:29;;;;;;;9.77;5.15;;;;;;;24.54;52.69;99410.34;4971939;28;20033;-72
2023/05/27 10:07:55;;;;;;;8.38;4.90;;;;;;;24.57;52.71;99414.59;4972639;28;20369;-73
2023/05/27 10:10:22;;;;;;;8.75;4.60;;;;;;;24.59;52.82;99412.66;4966032;28;20048;-72
2023/05/27 10:12:49;;;;;;;9.85;4.53;;;;;;;24.60;52.84;99414.34;4967109;28;20030;-70
2023/05/27 10:15:29;;;;;;;8.27;4.68;;;;;;;24.60;52.53;99417.03;4966183;28;20022;-72
2023/05/27 10:17:57;;;;;;;14.77;5.20;;;;;;;24.64;52.61;99413.16;4969258;28;20500;-72
2023/05/27 10:20:34;;;;;;;11.00;5.00;;;;;;;24.64;52.70;99410.50;4996909;28;20020;-72
2023/05/27 10:23:12;;;;;;;8.32;4.75;;;;;;;24.68;52.73;99413.75;5074155;28;20362;-72
2023/05/27 10:25:47;;;;;;;8.75;3.97;;;;;;;24.69;52.90;99414.63;5045597;28;20093;-73
2023/05/27 10:28:35;;;;;;;8.70;4.80;;;;;;;24.71;52.84;99404.69;4953288;29;20027;-72
2023/05/27 10:31:29;;;;;;;13.45;4.80;;;;;;;24.73;52.90;99410.72;4952721;29;20477;-72
2023/05/27 10:33:57;;;;;;;10.40;4.32;;;;;;;24.74;52.89;99415.13;4954575;28;20039;-72
2023/05/27 10:36:25;;;;;;;12.20;4.53;;;;;;;24.75;52.57;99411.47;4960213;28;20034;-72
2023/05/27 10:39:01;;;;;;;12.57;4.65;;;;;;;24.75;52.51;99411.47;4972470;28;20514;-72
2023/05/27 10:41:27;;;;;;;8.40;4.40;;;;;;;24.77;52.36;99421.06;5042987;28;20029;-72
2023/05/27 10:43:59;;;;;;;11.77;4.88;;;;;;;24.75;52.30;99406.16;5073471;28;20056;-72
2023/05/27 10:46:25;;;;;;;9.75;4.80;;;;;;;24.78;52.53;99405.88;5073673;28;20052;-73
2023/05/27 10:48:51;;;;;;;11.15;4.70;;;;;;;24.77;52.18;99409.53;5074023;28;20489;-72
2023/05/27 10:51:16;;;;;;;9.45;4.68;;;;;;;24.79;52.19;99412.94;4987122;28;20039;-72
2023/05/27 10:53:41;;;;;;;8.35;4.45;;;;;;;24.81;52.25;99411.03;4954922;28;20042;-72
2023/05/27 10:56:08;;;;;;;7.28;3.92;;;;;;;24.82;52.16;99407.38;4977722;28;20027;-73
2023/05/27 10:58:35;;;;;;;11.30;4.43;;;;;;;24.83;52.39;99409.09;4970629;28;20098;-73
2023/05/27 11:01:07;;;;;;;11.20;4.68;;;;;;;24.83;52.06;99398.41;4994472;28;20161;-73
2023/05/27 11:03:32;;;;;;;7.43;4.40;;;;;;;24.86;52.02;99402.66;4971779;28;20117;-72
2023/05/27 11:06:01;;;;;;;7.20;3.90;;;;;;;24.89;52.07;99397.91;4971530;28;20156;-72
2023/05/27 11:08:27;;;;;;;7.93;4.18;;;;;;;24.91;52.17;99400.47;4970567;28;20037;-74
2023/05/27 11:11:07;;;;;;;6.60;3.90;;;;;;;24.94;52.24;99406.41;4952553;28;20120;-73
2023/05/27 11:13:34;;;;;;;9.50;4.10;;;;;;;24.96;52.05;99398.31;4952193;28;20023;-73
2023/05/27 11:16:04;;;;;;;7.53;4.20;;;;;;;24.99;52.20;99397.22;4952116;29;20158;-75
2023/05/27 11:18:38;;;;;;;8.00;3.70;;;;;;;25.00;52.17;99398.91;4956796;28;20508;-73
2023/05/27 11:21:04;;;;;;;6.95;4.20;;;;;;;25.02;52.38;99387.13;4967887;28;20026;-72
2023/05/27 11:23:39;;;;;;;9.75;4.43;;;;;;;25.04;52.43;99389.69;4971775;28;20043;-73
2023/05/27 11:26:11;;;;;;;6.80;3.57;;;;;;;25.07;52.35;99386.75;4971356;28;20027;-73
2023/05/27 11:28:37;;;;;;;9.02;4.28;;;;;;;25.08;52.18;99375.09;4971693;28;20050;-72
2023/05/27 11:31:03;;;;;;;8.15;4.03;;;;;;;25.11;52.14;99372.19;5061055;28;20058;-73
2023/05/27 11:33:35;;;;;;;8.15;3.72;;;;;;;25.13;52.57;99372.91;5055154;28;20027;-73